createdAt,value
2023-02-09T00:01:24.800Z,99406.53
2023-02-09T00:03:51.958Z,99365.88
2023-02-09T00:06:20.696Z,99392.22
2023-02-09T00:08:47.551Z,99409.44
2023-02-09T00:11:46.901Z,99394.88
2023-02-09T00:14:16.573Z,99408.56
2023-02-09T00:16:43.716Z,99382.69
2023-02-09T00:19:12.020Z,99396.47
2023-02-09T00:21:39.884Z,99389.97
2023-02-09T00:24:07.538Z,99394.47
2023-02-09T00:26:34.469Z,99400.69
2023-02-09T00:29:00.981Z,99392.34
2023-02-09T00:31:27.599Z,99407.03
2023-02-09T00:33:54.341Z,99398.75
2023-02-09T00:36:21.362Z,99411.47
2023-02-09T00:38:47.868Z,99367.03
2023-02-09T00:41:16.175Z,99383.94
2023-02-09T00:43:43.041Z,99391.09
2023-02-09T00:46:09.970Z,99412.41
2023-02-09T00:48:36.537Z,99402.59
2023-02-09T00:51:03.329Z,99412.28
2023-02-09T00:53:29.844Z,99429.16
2023-02-09T00:55:56.622Z,99404.28
2023-02-09T00:58:23.101Z,99406.13
2023-02-09T01:00:49.905Z,99408.44
2023-02-09T01:03:16.436Z,99406.97
2023-02-09T01:05:43.520Z,99413.72
2023-02-09T01:08:11.646Z,99417.72
2023-02-09T01:10:38.650Z,99407.78
2023-02-09T01:13:05.804Z,99406.84
2023-02-09T01:15:32.484Z,99412.53
2023-02-09T01:17:59.658Z,99428.00
2023-02-09T01:20:26.442Z,99452.03
2023-02-09T01:22:52.898Z,99460.69
2023-02-09T01:25:19.369Z,99469.63
2023-02-09T01:27:46.231Z,99461.09
2023-02-09T01:30:13.219Z,99462.13
2023-02-09T01:32:39.655Z,99459.25
2023-02-09T01:35:06.596Z,99467.91
2023-02-09T01:37:34.514Z,99456.06
2023-02-09T01:40:01.504Z,99453.13
2023-02-09T01:42:28.084Z,99455.41
2023-02-09T01:45:42.051Z,99452.94
2023-02-09T01:48:09.200Z,99458.16
2023-02-09T01:50:40.998Z,99444.97
2023-02-09T01:53:08.232Z,99451.94
2023-02-09T01:55:40.103Z,99461.66
2023-02-09T01:58:11.961Z,99445.38
2023-02-09T02:00:38.494Z,99442.63
2023-02-09T02:03:09.977Z,99445.22
2023-02-09T02:05:39.287Z,99447.69
2023-02-09T02:08:21.289Z,99421.72
2023-02-09T02:10:47.957Z,99419.88
2023-02-09T02:13:14.522Z,99442.00
2023-02-09T02:16:04.818Z,99439.19
2023-02-09T02:18:49.643Z,99441.47
2023-02-09T02:21:41.594Z,99412.31
2023-02-09T02:24:42.082Z,99456.56
2023-02-09T02:27:32.300Z,99450.44
2023-02-09T02:30:17.030Z,99456.00
2023-02-09T02:32:59.390Z,99458.31
2023-02-09T02:35:40.968Z,99460.13
2023-02-09T02:38:37.877Z,99469.69
2023-02-09T02:41:26.277Z,99471.22
2023-02-09T02:44:17.198Z,99467.97
2023-02-09T02:46:51.944Z,99478.41
2023-02-09T02:49:34.520Z,99450.13
2023-02-09T02:52:04.857Z,99483.72
2023-02-09T02:54:46.648Z,99473.81
2023-02-09T02:57:17.954Z,99470.19
2023-02-09T02:59:55.223Z,99478.47
2023-02-09T03:02:26.285Z,99487.13
2023-02-09T03:04:55.606Z,99475.06
2023-02-09T03:07:22.114Z,99480.63
2023-02-09T03:09:50.688Z,99491.09
2023-02-09T03:12:40.156Z,99480.66
2023-02-09T03:15:16.185Z,99478.50
2023-02-09T03:17:52.216Z,99471.22
2023-02-09T03:20:37.390Z,99489.38
2023-02-09T03:23:16.442Z,99460.31
2023-02-09T03:25:48.470Z,99472.94
2023-02-09T03:28:23.737Z,99491.75
2023-02-09T03:30:52.972Z,99486.59
2023-02-09T03:33:26.779Z,99474.66
2023-02-09T03:35:58.179Z,99491.69
2023-02-09T03:38:25.135Z,99496.28
2023-02-09T03:40:51.529Z,99482.97
2023-02-09T03:43:17.954Z,99498.00
2023-02-09T03:45:44.421Z,99497.09
2023-02-09T03:48:10.885Z,99496.88
2023-02-09T03:50:37.521Z,99508.47
2023-02-09T03:53:08.284Z,99502.97
2023-02-09T03:55:35.817Z,99488.09
2023-02-09T03:58:02.254Z,99495.59
2023-02-09T04:00:28.741Z,99506.50
2023-02-09T04:02:56.350Z,99491.84
2023-02-09T04:05:23.040Z,99508.13
2023-02-09T04:07:49.779Z,99485.22
2023-02-09T04:10:16.219Z,99502.97
2023-02-09T04:12:42.646Z,99504.19
2023-02-09T04:15:09.587Z,99506.84
2023-02-09T04:17:36.010Z,99510.59
2023-02-09T04:20:02.432Z,99515.75
2023-02-09T04:22:28.876Z,99507.44
2023-02-09T04:24:55.267Z,99510.25
2023-02-09T04:27:21.903Z,99512.13
2023-02-09T04:29:48.311Z,99508.59
2023-02-09T04:32:20.704Z,99507.19
2023-02-09T04:34:47.106Z,99511.81
2023-02-09T04:37:13.503Z,99507.06
2023-02-09T04:39:39.942Z,99513.22
2023-02-09T04:42:06.361Z,99505.09
2023-02-09T04:44:32.804Z,99507.41
2023-02-09T04:46:59.221Z,99491.00
2023-02-09T04:49:25.860Z,99510.09
2023-02-09T04:51:52.307Z,99506.97
2023-02-09T04:54:18.721Z,99505.00
2023-02-09T04:56:45.110Z,99510.41
2023-02-09T04:59:30.147Z,99513.69
2023-02-09T05:01:56.579Z,99523.94
2023-02-09T05:04:23.078Z,99528.53
2023-02-09T05:06:49.498Z,99510.19
2023-02-09T05:09:15.934Z,99522.13
2023-02-09T05:11:42.342Z,99531.09
2023-02-09T05:14:08.788Z,99527.34
2023-02-09T05:16:36.013Z,99536.25
2023-02-09T05:19:03.516Z,99540.38
2023-02-09T05:21:29.925Z,99548.06
2023-02-09T05:23:56.356Z,99550.19
2023-02-09T05:26:22.791Z,99551.22
2023-02-09T05:28:49.242Z,99554.44
2023-02-09T05:31:16.532Z,99550.53
2023-02-09T05:33:43.151Z,99552.00
2023-02-09T05:36:09.948Z,99544.31
2023-02-09T05:38:36.587Z,99534.78
2023-02-09T05:41:08.923Z,99536.31
2023-02-09T05:43:35.907Z,99521.13
2023-02-09T05:46:03.296Z,99548.91
2023-02-09T05:48:30.028Z,99530.78
2023-02-09T05:51:01.529Z,99521.06
2023-02-09T05:53:27.963Z,99504.91
2023-02-09T05:55:54.352Z,99538.44
2023-02-09T05:58:20.780Z,99546.63
2023-02-09T06:00:47.449Z,99551.09
2023-02-09T06:03:14.090Z,99546.13
2023-02-09T06:05:40.666Z,99572.06
2023-02-09T06:08:07.119Z,99553.63
2023-02-09T06:10:33.590Z,99553.75
2023-02-09T06:13:00.088Z,99556.69
2023-02-09T06:15:26.514Z,99557.41
2023-02-09T06:17:52.961Z,99554.63
2023-02-09T06:20:19.533Z,99558.91
2023-02-09T06:22:46.020Z,99559.50
2023-02-09T06:25:12.624Z,99545.09
2023-02-09T06:27:39.072Z,99545.88
2023-02-09T06:30:06.923Z,99578.31
2023-02-09T06:32:33.362Z,99565.38
2023-02-09T06:34:59.766Z,99561.03
2023-02-09T06:37:26.279Z,99540.75
2023-02-09T06:39:52.794Z,99573.03
2023-02-09T06:42:19.396Z,99564.19
2023-02-09T06:44:45.882Z,99579.03
2023-02-09T06:47:12.332Z,99589.16
2023-02-09T06:49:38.799Z,99576.22
2023-02-09T06:52:05.587Z,99576.44
2023-02-09T06:54:32.202Z,99576.44
2023-02-09T06:56:58.697Z,99572.13
2023-02-09T06:59:25.259Z,99585.03
2023-02-09T07:01:54.813Z,99578.84
2023-02-09T07:04:21.803Z,99597.97
2023-02-09T07:06:48.223Z,99586.84
2023-02-09T07:09:14.692Z,99598.69
2023-02-09T07:11:41.135Z,99614.53
2023-02-09T07:14:07.578Z,99609.16
2023-02-09T07:16:34.070Z,99622.50
2023-02-09T07:19:01.134Z,99622.25
2023-02-09T07:21:27.757Z,99606.63
2023-02-09T07:23:54.327Z,99623.16
2023-02-09T07:26:20.828Z,99614.72
2023-02-09T07:28:48.108Z,99608.25
2023-02-09T07:31:16.104Z,99622.09
2023-02-09T07:33:42.931Z,99630.50
2023-02-09T07:36:13.193Z,99615.84
2023-02-09T07:38:40.610Z,99632.53
2023-02-09T07:41:12.678Z,99625.47
2023-02-09T07:43:39.099Z,99625.78
2023-02-09T07:46:07.265Z,99629.03
2023-02-09T07:48:34.589Z,99632.16
2023-02-09T07:51:01.591Z,99636.00
2023-02-09T07:53:28.702Z,99624.16
2023-02-09T07:55:55.278Z,99624.03
2023-02-09T07:58:22.002Z,99618.75
2023-02-09T08:00:50.337Z,99626.19
2023-02-09T08:03:19.665Z,99622.22
2023-02-09T08:06:00.426Z,99613.81
2023-02-09T08:08:26.928Z,99593.47
2023-02-09T08:10:55.550Z,99589.16
2023-02-09T08:13:23.215Z,99573.50
2023-02-09T08:15:58.257Z,99568.16
2023-02-09T08:18:30.750Z,99546.94
2023-02-09T08:21:03.197Z,99539.97
2023-02-09T08:23:32.994Z,99536.59
2023-02-09T08:26:02.852Z,99548.34
2023-02-09T08:28:42.899Z,99580.81
2023-02-09T08:31:15.308Z,99595.91
2023-02-09T08:33:42.890Z,99601.88
2023-02-09T08:36:11.243Z,99629.31
2023-02-09T08:38:38.060Z,99627.22
2023-02-09T08:41:09.432Z,99626.47
2023-02-09T08:43:36.385Z,99651.88
2023-02-09T08:46:04.107Z,99697.66
2023-02-09T08:48:35.670Z,99710.13
2023-02-09T08:51:02.630Z,99723.81
2023-02-09T08:53:29.378Z,99740.06
2023-02-09T08:55:55.982Z,99724.16
2023-02-09T08:58:22.459Z,99749.13
2023-02-09T09:00:48.918Z,99819.53
2023-02-09T09:03:16.570Z,99793.41
2023-02-09T09:05:43.022Z,99831.00
2023-02-09T09:08:12.097Z,99903.06
2023-02-09T09:10:38.515Z,99943.81
2023-02-09T09:13:04.965Z,99946.31
2023-02-09T09:15:31.551Z,100032.16
2023-02-09T09:17:57.968Z,99996.59
2023-02-09T09:20:24.405Z,100061.75
2023-02-09T09:25:18.564Z,100125.09
2023-02-09T09:27:45.145Z,100059.25
2023-02-09T09:30:12.490Z,100048.78
2023-02-09T09:32:38.978Z,100104.28
2023-02-09T09:35:05.910Z,100100.88
2023-02-09T09:37:32.887Z,100032.38
2023-02-09T09:40:00.242Z,100109.88
2023-02-09T09:42:42.726Z,100104.81
2023-02-09T09:45:16.232Z,100090.38
2023-02-09T09:47:44.751Z,100068.44
2023-02-09T09:50:19.052Z,100061.47
2023-02-09T09:52:52.500Z,100130.19
2023-02-09T09:55:30.579Z,100101.44
2023-02-09T09:58:01.147Z,100115.81
2023-02-09T10:00:33.157Z,100121.13
2023-02-09T10:02:59.558Z,100115.66
2023-02-09T10:05:35.305Z,100148.28
2023-02-09T10:08:10.586Z,100126.19
2023-02-09T10:11:05.070Z,100158.31
2023-02-09T10:13:44.494Z,100155.78
2023-02-09T10:16:34.431Z,100107.31
2023-02-09T10:19:04.502Z,100171.19
2023-02-09T10:21:34.341Z,100160.19
2023-02-09T10:24:00.676Z,100216.09
2023-02-09T10:26:37.867Z,100200.38
2023-02-09T10:29:25.431Z,100257.34
2023-02-09T10:32:23.571Z,100291.84
2023-02-09T10:34:56.792Z,100352.56
2023-02-09T10:37:32.963Z,100310.06
2023-02-09T10:40:13.587Z,100580.06
2023-02-09T10:42:49.323Z,100590.66
2023-02-09T10:45:34.010Z,100614.41
2023-02-09T10:48:08.409Z,100600.25
2023-02-09T10:50:56.557Z,100598.34
2023-02-09T10:53:33.005Z,100618.00
2023-02-09T10:56:02.102Z,100628.72
2023-02-09T10:58:35.105Z,100623.09
2023-02-09T11:01:10.462Z,100619.19
2023-02-09T11:03:56.167Z,100633.88
2023-02-09T11:06:23.161Z,100585.97
2023-02-09T11:08:59.799Z,100623.75
2023-02-09T11:11:32.919Z,100620.47
2023-02-09T11:14:00.300Z,100611.44
2023-02-09T11:17:06.575Z,100629.56
2023-02-09T11:19:54.896Z,100629.09
2023-02-09T11:22:46.359Z,100632.22
2023-02-09T11:25:25.028Z,100639.78
2023-02-09T11:28:22.421Z,100634.34
2023-02-09T11:31:14.193Z,100631.31
2023-02-09T11:34:11.573Z,100634.50
2023-02-09T11:37:00.452Z,100636.41
2023-02-09T11:39:41.265Z,100646.31
2023-02-09T11:42:53.109Z,100638.16
2023-02-09T11:45:38.865Z,100624.63
2023-02-09T11:48:19.790Z,100640.06
2023-02-09T11:50:53.833Z,100635.91
2023-02-09T11:53:23.541Z,100643.69
2023-02-09T11:55:57.266Z,100630.13
2023-02-09T11:58:45.600Z,100624.13
2023-02-09T12:01:23.993Z,100635.47
2023-02-09T12:04:00.156Z,100633.75
2023-02-09T12:06:30.641Z,100633.91
2023-02-09T12:09:21.184Z,100640.44
2023-02-09T12:12:02.150Z,100619.38
2023-02-09T12:14:45.726Z,100611.78
2023-02-09T12:17:18.841Z,100612.38
2023-02-09T12:19:56.033Z,100589.94
2023-02-09T12:22:34.848Z,100589.63
2023-02-09T12:25:53.881Z,100593.19
2023-02-09T12:28:35.374Z,100601.97
2023-02-09T12:31:05.968Z,100591.25
2023-02-09T12:33:36.530Z,100589.53
2023-02-09T12:36:10.741Z,100591.97
2023-02-09T12:39:03.991Z,100590.41
2023-02-09T12:41:45.475Z,100592.06
2023-02-09T12:44:11.861Z,100592.53
2023-02-09T12:46:44.251Z,100588.25
2023-02-09T12:49:13.798Z,100586.97
2023-02-09T12:51:43.414Z,100588.97
2023-02-09T12:54:29.054Z,100600.38
2023-02-09T12:56:56.356Z,100614.41
2023-02-09T12:59:24.987Z,100610.28
2023-02-09T13:02:07.187Z,100604.31
2023-02-09T13:04:39.002Z,100612.50
2023-02-09T13:07:15.450Z,100618.53
2023-02-09T13:09:43.148Z,100612.94
2023-02-09T13:12:15.774Z,100605.56
2023-02-09T13:14:44.372Z,100614.31
2023-02-09T13:17:32.382Z,100611.41
2023-02-09T13:20:30.002Z,100622.50
2023-02-09T13:23:28.049Z,100613.84
2023-02-09T13:26:19.679Z,100609.59
2023-02-09T13:28:46.520Z,100623.84
2023-02-09T13:31:23.202Z,100628.88
2023-02-09T13:33:55.880Z,100604.66
2023-02-09T13:36:45.724Z,100616.84
2023-02-09T13:39:23.976Z,100611.44
2023-02-09T13:41:53.647Z,100612.91
2023-02-09T13:44:22.993Z,100615.00
2023-02-09T13:47:01.846Z,100615.28
2023-02-09T13:49:30.195Z,100632.50
2023-02-09T13:52:16.384Z,100620.50
2023-02-09T13:54:43.797Z,100611.22
2023-02-09T13:57:23.643Z,100601.19
2023-02-09T13:59:50.617Z,100593.06
2023-02-09T14:02:24.496Z,100588.16
2023-02-09T14:04:56.709Z,100598.59
2023-02-09T14:07:28.245Z,100610.34
2023-02-09T14:10:11.341Z,100601.84
2023-02-09T14:12:52.783Z,100589.34
2023-02-09T14:15:42.826Z,100577.28
2023-02-09T14:18:49.183Z,100562.69
2023-02-09T14:21:17.541Z,100559.84
2023-02-09T14:23:55.804Z,100550.91
2023-02-09T14:26:27.989Z,100551.53
2023-02-09T14:29:33.100Z,100546.06
2023-02-09T14:32:31.911Z,100537.91
2023-02-09T14:35:00.685Z,100560.59
2023-02-09T14:37:30.281Z,100561.16
2023-02-09T14:40:18.794Z,100551.19
2023-02-09T14:43:06.834Z,100550.69
2023-02-09T14:45:48.976Z,100546.69
2023-02-09T14:48:19.741Z,100506.25
2023-02-09T14:50:48.597Z,100526.97
2023-02-09T14:53:16.580Z,100520.84
2023-02-09T14:55:45.063Z,100522.69
2023-02-09T14:58:29.333Z,100511.88
2023-02-09T15:00:58.374Z,100506.75
2023-02-09T15:03:25.091Z,100504.03
2023-02-09T15:05:57.298Z,100494.94
2023-02-09T15:08:25.814Z,100493.59
2023-02-09T15:10:56.656Z,100473.56
2023-02-09T15:13:23.999Z,100460.03
2023-02-09T15:15:50.544Z,100472.00
2023-02-09T15:18:22.380Z,100452.44
2023-02-09T15:20:50.245Z,100448.13
2023-02-09T15:23:17.525Z,100436.16
2023-02-09T15:25:44.879Z,100425.16
2023-02-09T15:28:31.240Z,100416.06
2023-02-09T15:30:59.151Z,100392.06
2023-02-09T15:33:27.495Z,100382.81
2023-02-09T15:35:54.204Z,100382.41
2023-02-09T15:38:20.839Z,100384.91
2023-02-09T15:41:08.302Z,100392.47
2023-02-09T15:43:54.212Z,100357.28
2023-02-09T15:46:39.724Z,100339.59
2023-02-09T15:49:07.355Z,100304.88
2023-02-09T15:51:36.766Z,100238.25
2023-02-09T15:54:09.207Z,100194.75
2023-02-09T15:56:39.944Z,100170.88
2023-02-09T15:59:06.708Z,100126.97
2023-02-09T16:01:34.486Z,100096.59
2023-02-09T16:04:13.573Z,100040.66
2023-02-09T16:06:48.450Z,99990.63
2023-02-09T16:09:21.888Z,99948.97
2023-02-09T16:11:48.556Z,99907.63
2023-02-09T16:14:20.279Z,99875.22
2023-02-09T16:16:48.275Z,99869.13
2023-02-09T16:19:15.593Z,99864.69
2023-02-09T16:21:44.946Z,99853.19
2023-02-09T16:24:23.072Z,99867.47
2023-02-09T16:26:49.552Z,99862.00
2023-02-09T16:29:16.171Z,99866.00
2023-02-09T16:31:42.651Z,99852.81
2023-02-09T16:34:15.153Z,99844.31
2023-02-09T16:36:42.379Z,99844.72
2023-02-09T16:39:27.208Z,99850.97
2023-02-09T16:41:53.703Z,99848.44
2023-02-09T16:44:23.427Z,99829.06
2023-02-09T16:46:53.779Z,99825.00
2023-02-09T16:49:31.918Z,99823.34
2023-02-09T16:52:02.806Z,99802.78
2023-02-09T16:54:33.037Z,99799.44
2023-02-09T16:56:59.598Z,99810.53
2023-02-09T16:59:26.265Z,99815.59
2023-02-09T17:01:52.766Z,99812.94
2023-02-09T17:04:19.362Z,99814.56
2023-02-09T17:06:50.558Z,99806.09
2023-02-09T17:09:17.152Z,99799.56
2023-02-09T17:11:43.640Z,99808.38
2023-02-09T17:14:11.203Z,99803.78
2023-02-09T17:16:41.718Z,99816.41
2023-02-09T17:19:16.004Z,99814.75
2023-02-09T17:21:42.551Z,99808.50
2023-02-09T17:24:14.897Z,99812.16
2023-02-09T17:26:41.993Z,99796.53
2023-02-09T17:29:09.293Z,99796.44
2023-02-09T17:31:51.862Z,99793.13
2023-02-09T17:34:20.634Z,99778.53
2023-02-09T17:36:47.297Z,99791.78
2023-02-09T17:39:14.034Z,99791.44
2023-02-09T17:41:46.453Z,99806.41
2023-02-09T17:44:39.124Z,99802.91
2023-02-09T17:47:14.306Z,99792.28
2023-02-09T17:49:41.472Z,99783.50
2023-02-09T17:52:15.308Z,99774.28
2023-02-09T17:54:41.723Z,99779.81
2023-02-09T17:57:12.556Z,99779.44
2023-02-09T17:59:39.009Z,99777.63
2023-02-09T18:02:14.019Z,99767.44
2023-02-09T18:04:42.685Z,99765.50
2023-02-09T18:07:10.102Z,99753.25
2023-02-09T18:09:36.625Z,99755.16
2023-02-09T18:12:10.041Z,99751.44
2023-02-09T18:14:36.673Z,99759.38
2023-02-09T18:17:04.058Z,99754.84
2023-02-09T18:19:31.012Z,99768.41
2023-02-09T18:22:00.386Z,99774.50
2023-02-09T18:24:29.790Z,99764.28
2023-02-09T18:26:56.369Z,99766.22
2023-02-09T18:29:26.148Z,99760.94
2023-02-09T18:31:52.932Z,99772.28
2023-02-09T18:34:19.460Z,99759.59
2023-02-09T18:36:45.904Z,99768.72
2023-02-09T18:39:15.169Z,99779.59
2023-02-09T18:41:41.886Z,99780.56
2023-02-09T18:44:08.396Z,99789.38
2023-02-09T18:46:34.952Z,99786.75
2023-02-09T18:49:03.539Z,99789.88
2023-02-09T18:51:31.411Z,99804.53
2023-02-09T18:53:58.044Z,99803.69
2023-02-09T18:56:26.881Z,99804.53
2023-02-09T18:58:53.868Z,99800.44
2023-02-09T19:01:22.282Z,99803.06
2023-02-09T19:03:53.238Z,99819.78
2023-02-09T19:06:21.044Z,99817.34
2023-02-09T19:08:50.263Z,99812.78
2023-02-09T19:11:19.443Z,99827.84
2023-02-09T19:14:05.345Z,99844.25
2023-02-09T19:16:31.821Z,99839.38
2023-02-09T19:18:59.139Z,99841.31
2023-02-09T19:21:25.589Z,99850.78
2023-02-09T19:23:53.949Z,99856.16
2023-02-09T19:26:20.586Z,99846.66
2023-02-09T19:28:48.250Z,99847.50
2023-02-09T19:31:17.570Z,99862.41
2023-02-09T19:33:44.417Z,99851.28
2023-02-09T19:36:10.896Z,99846.81
2023-02-09T19:38:37.344Z,99852.09
2023-02-09T19:41:12.253Z,99846.91
2023-02-09T19:43:39.979Z,99852.00
2023-02-09T19:46:07.270Z,99870.34
2023-02-09T19:48:33.777Z,99865.91
2023-02-09T19:51:00.284Z,99876.22
2023-02-09T19:53:27.649Z,99869.28
2023-02-09T19:55:55.420Z,99866.13
2023-02-09T19:58:22.359Z,99867.88
2023-02-09T20:00:50.790Z,99864.31
2023-02-09T20:03:18.963Z,99860.91
2023-02-09T20:05:45.939Z,99861.13
2023-02-09T20:08:16.396Z,99865.63
2023-02-09T20:10:44.259Z,99864.66
2023-02-09T20:13:14.050Z,99864.78
2023-02-09T20:15:42.294Z,99862.47
2023-02-09T20:18:09.066Z,99873.44
2023-02-09T20:20:35.795Z,99864.09
2023-02-09T20:23:06.148Z,99865.00
2023-02-09T20:25:32.675Z,99871.91
2023-02-09T20:27:59.254Z,99869.47
2023-02-09T20:30:25.755Z,99870.44
2023-02-09T20:32:52.194Z,99873.16
2023-02-09T20:35:19.730Z,99861.00
2023-02-09T20:37:46.188Z,99858.44
2023-02-09T20:40:12.990Z,99862.00
2023-02-09T20:42:58.665Z,99861.13
2023-02-09T20:45:43.649Z,99851.84
2023-02-09T20:48:10.085Z,99850.16
2023-02-09T20:50:36.555Z,99847.72
2023-02-09T20:53:03.066Z,99853.00
2023-02-09T20:55:30.259Z,99846.88
2023-02-09T20:57:57.297Z,99846.75
2023-02-09T21:00:23.796Z,99836.63
2023-02-09T21:02:50.357Z,99832.22
2023-02-09T21:05:17.098Z,99843.69
2023-02-09T21:07:44.024Z,99841.16
2023-02-09T21:10:12.955Z,99835.88
2023-02-09T21:12:39.638Z,99833.38
2023-02-09T21:15:06.609Z,99830.75
2023-02-09T21:17:33.161Z,99832.50
2023-02-09T21:20:00.043Z,99821.50
2023-02-09T21:22:26.710Z,99828.06
2023-02-09T21:24:53.122Z,99820.47
2023-02-09T21:27:20.446Z,99819.69
2023-02-09T21:29:47.000Z,99833.47
2023-02-09T21:32:15.364Z,99823.22
2023-02-09T21:34:42.795Z,99830.16
2023-02-09T21:37:13.016Z,99818.81
2023-02-09T21:39:40.381Z,99821.19
2023-02-09T21:42:25.971Z,99824.69
2023-02-09T21:44:54.483Z,99825.75
2023-02-09T21:47:28.731Z,99830.00
2023-02-09T21:49:55.671Z,99833.34
2023-02-09T21:52:22.401Z,99827.34
2023-02-09T21:54:49.258Z,99834.22
2023-02-09T21:57:15.776Z,99835.94
2023-02-09T21:59:42.245Z,99840.28
2023-02-09T22:02:13.967Z,99836.16
2023-02-09T22:04:40.777Z,99836.91
2023-02-09T22:07:07.284Z,99838.97
2023-02-09T22:09:33.700Z,99841.78
2023-02-09T22:12:00.895Z,99843.38
2023-02-09T22:14:28.713Z,99828.63
2023-02-09T22:16:55.411Z,99826.19
2023-02-09T22:19:23.567Z,99830.84
2023-02-09T22:21:50.359Z,99824.94
2023-02-09T22:24:17.862Z,99808.56
2023-02-09T22:26:45.039Z,99824.41
2023-02-09T22:29:13.433Z,99821.09
2023-02-09T22:31:40.500Z,99827.25
2023-02-09T22:34:07.638Z,99831.53
2023-02-09T22:36:35.174Z,99832.44
2023-02-09T22:39:02.791Z,99829.03
2023-02-09T22:41:29.865Z,99821.38
2023-02-09T22:44:01.867Z,99838.44
2023-02-09T22:46:36.635Z,99842.78
2023-02-09T22:49:06.207Z,99841.13
2023-02-09T22:51:34.508Z,99853.16
2023-02-09T22:54:01.830Z,99849.53
2023-02-09T22:56:30.729Z,99846.75
2023-02-09T22:58:58.981Z,99849.03
2023-02-09T23:01:26.629Z,99844.88
2023-02-09T23:03:54.001Z,99852.66
2023-02-09T23:06:27.095Z,99856.06
2023-02-09T23:08:55.783Z,99843.31
2023-02-09T23:11:22.715Z,99833.03
2023-02-09T23:13:51.076Z,99834.34
2023-02-09T23:16:25.103Z,99832.84
2023-02-09T23:18:56.411Z,99835.38
2023-02-09T23:21:25.818Z,99844.66
2023-02-09T23:23:53.234Z,99839.63
2023-02-09T23:26:20.758Z,99834.59
2023-02-09T23:28:47.510Z,99845.41
2023-02-09T23:31:16.713Z,99856.41
2023-02-09T23:33:43.397Z,99870.00
2023-02-09T23:36:13.838Z,99866.19
2023-02-09T23:38:41.840Z,99876.25
2023-02-09T23:41:11.094Z,99872.94
2023-02-09T23:43:38.953Z,99863.78
2023-02-09T23:46:08.453Z,99863.44
2023-02-09T23:48:35.282Z,99883.94
2023-02-09T23:51:04.138Z,99861.78
2023-02-09T23:53:31.589Z,99879.72
2023-02-09T23:56:03.790Z,99897.03
2023-02-09T23:58:36.864Z,99882.91
